Ifestos 2 — SW5647 — position and weather

sailwx.info

Track history (hours):
 
Tides and Currents Weather Stations Pressure Air Temp Water Temp Dewpoint Dewpoint Depression Visibility Wind Speed Wind Dir Waves Ship Positions

Ifestos 2

Last reported at 2017-Nov-23 05:30 UTC. Time now 2017-Nov-23 05:40 UTC.
Position N 37°57' E 023°35'.

Length 30 m; draft 3.3 m.

Type: Tug. MMSI: 237070600.

Date/timePositionNaut miles runAvg speedWind from/ knotsBaromVisibWave heightAir tempDewpointWater temp
2017-Nov-23 05:30N 37°57' E 023°35'1 1.1
2017-Nov-23 05:00N 37°57' E 023°35'2 4.8
2017-Nov-23 04:30N 37°58' E 023°33'4 8.3
2017-Nov-23 04:00N 38°02' E 023°31'2 3.8
2017-Nov-23 03:30N 38°00' E 023°32'3 6.2
2017-Nov-23 03:00N 37°58' E 023°34'0 0.0
2017-Nov-23 02:30N 37°58' E 023°34'0 0.0
2017-Nov-23 02:00N 37°58' E 023°34'0 0.0
2017-Nov-23 01:30N 37°58' E 023°34'0 0.0
2017-Nov-23 01:00N 37°58' E 023°34'0 0.0
2017-Nov-23 00:31N 37°58' E 023°34'1 2.3
2017-Nov-23 00:00N 37°57' E 023°35'1 2.6
2017-Nov-22 23:30N 37°57' E 023°37'0 0.0
2017-Nov-22 23:00N 37°57' E 023°37'0 0.0
2017-Nov-22 22:30N 37°57' E 023°37'0 0.0
2017-Nov-22 22:00N 37°57' E 023°37'0 0.0
2017-Nov-22 21:30N 37°57' E 023°37'0 0.0
2017-Nov-22 21:00N 37°57' E 023°37'1 1.4
2017-Nov-22 20:30N 37°57' E 023°36'0 0.2
2017-Nov-22 20:00N 37°57' E 023°36'0 0.0
2017-Nov-22 19:30N 37°57' E 023°36'  
2017-Nov-20 00:30N 37°57' E 023°37'1 1.5
2017-Nov-20 00:00N 37°57' E 023°36'1 1.5
2017-Nov-19 23:30N 37°57' E 023°37'0 0.0
2017-Nov-19 23:00N 37°57' E 023°37'0 0.0
2017-Nov-19 22:30N 37°57' E 023°37'0 0.0
2017-Nov-19 22:00N 37°57' E 023°37'1 1.4
2017-Nov-19 21:30N 37°57' E 023°36'1 1.5
2017-Nov-19 21:00N 37°57' E 023°35'1 1.4
2017-Nov-19 20:30N 37°57' E 023°36'1 1.7
2017-Nov-19 20:00N 37°56' E 023°36'1 2.1
2017-Nov-19 19:30N 37°57' E 023°37'0 0.0
2017-Nov-19 19:00N 37°57' E 023°37'1 2.8
2017-Nov-19 18:30N 37°57' E 023°35'0 0.9
2017-Nov-19 18:00N 37°57' E 023°35'1 1.4
2017-Nov-19 17:30N 37°57' E 023°36'1 1.2
2017-Nov-19 17:00N 37°57' E 023°36'0 0.3
2017-Nov-19 16:30N 37°57' E 023°37'0 0.0
2017-Nov-19 16:00N 37°57' E 023°37'0 0.0
2017-Nov-19 15:30N 37°57' E 023°37'0 0.8
2017-Nov-19 15:00N 37°57' E 023°36'1 2.1
2017-Nov-19 14:30N 37°56' E 023°36'1 1.7
2017-Nov-19 13:43N 37°57' E 023°37'0 0.0
2017-Nov-19 13:30N 37°57' E 023°37'0 0.0
2017-Nov-19 13:00N 37°57' E 023°37'0 0.4
2017-Nov-19 12:30N 37°58' E 023°36'0 0.4
2017-Nov-19 12:00N 37°57' E 023°37'0 0.0
2017-Nov-19 11:30N 37°57' E 023°37'0 0.7
2017-Nov-19 11:00N 37°58' E 023°36'0 0.4
2017-Nov-19 10:30N 37°58' E 023°36'1 2.0
2017-Nov-19 10:00N 37°57' E 023°35'1 2.2
2017-Nov-19 09:30N 37°57' E 023°37'0 0.0
2017-Nov-19 08:45N 37°57' E 023°37'0 0.0
2017-Nov-19 08:30N 37°57' E 023°37'0 0.0
2017-Nov-19 07:56N 37°57' E 023°37'0 0.0
2017-Nov-19 07:14N 37°57' E 023°37'0 0.0
2017-Nov-19 06:59N 37°57' E 023°37'0 0.0
2017-Nov-19 06:29N 37°57' E 023°37'0 0.0
2017-Nov-19 05:58N 37°57' E 023°37'1 2.4
2017-Nov-19 05:30N 37°57' E 023°35'0 0.4
2017-Nov-19 05:00N 37°57' E 023°35'1 2.0
2017-Nov-19 04:24N 37°57' E 023°37'0 0.0
2017-Nov-19 04:00N 37°57' E 023°37'0 0.0
2017-Nov-19 03:28N 37°57' E 023°37'1 2.3
2017-Nov-19 03:00N 37°57' E 023°35'1 2.1
2017-Nov-19 02:29N 37°57' E 023°37'0 0.0
2017-Nov-19 01:59N 37°57' E 023°37'0 0.0
2017-Nov-19 01:29N 37°57' E 023°37'0 0.0
2017-Nov-19 00:44N 37°57' E 023°37'0 0.0
2017-Nov-19 00:21N 37°57' E 023°37'0 0.0
2017-Nov-18 22:11N 37°58' E 023°37'1 3.7
2017-Nov-18 22:00N 37°57' E 023°36'1 1.8
2017-Nov-18 21:30N 37°57' E 023°36'1 1.8
2017-Nov-18 21:00N 37°57' E 023°36'1 1.1
2017-Nov-18 20:30N 37°57' E 023°35'1 1.3
2017-Nov-18 20:00N 37°57' E 023°36'1 0.2
2017-Nov-18 16:34N 37°57' E 023°37'1 8.8
2017-Nov-18 16:30N 37°57' E 023°36'0 1.0
2017-Nov-18 16:00N 37°57' E 023°35'1 1.5
2017-Nov-18 15:18N 37°57' E 023°37'0 0.0
2017-Nov-18 14:58N 37°57' E 023°37'0 0.0
2017-Nov-18 13:54N 37°57' E 023°37'0 0.0
2017-Nov-18 13:27N 37°57' E 023°37'1 1.6
2017-Nov-18 13:00N 37°57' E 023°36'0 0.3
2017-Nov-18 12:30N 37°57' E 023°36'0 0.8
2017-Nov-18 12:00N 37°57' E 023°36'1 1.3
2017-Nov-18 11:28N 37°57' E 023°37'0 0.0
2017-Nov-18 10:59N 37°57' E 023°37'0 0.0
2017-Nov-18 10:28N 37°57' E 023°37'0 0.0
2017-Nov-18 09:57N 37°57' E 023°37'1 2.7
2017-Nov-18 09:30N 37°56' E 023°38'2 4.8
2017-Nov-18 09:00N 37°57' E 023°35'1 1.8
2017-Nov-18 08:30N 37°56' E 023°35'1 2.0
2017-Nov-18 08:00N 37°57' E 023°36'2 3.4
2017-Nov-18 07:30N 37°56' E 023°38'1 2.3
2017-Nov-18 06:59N 37°57' E 023°37'0 0.0
2017-Nov-18 06:30N 37°57' E 023°37'1 1.3
2017-Nov-18 06:00N 37°57' E 023°37'1 1.8
2017-Nov-18 05:30N 37°57' E 023°36'1 1.8
2017-Nov-18 05:00N 37°57' E 023°35'1 2.4
2017-Nov-18 04:30N 37°57' E 023°36'0 0.3
2017-Nov-18 03:26N 37°57' E 023°37'1 2.7
2017-Nov-18 03:00N 37°57' E 023°35'0 0.0
2017-Nov-18 02:29N 37°57' E 023°35'0 0.0
2017-Nov-18 02:00N 37°57' E 023°35'0 0.2
2017-Nov-18 01:30N 37°57' E 023°35'0 0.7
2017-Nov-18 01:00N 37°57' E 023°35'3 6.1
2017-Nov-18 00:30N 37°60' E 023°33'0 0.7
2017-Nov-18 00:00N 37°59' E 023°33'4 6.5
2017-Nov-17 23:27N 37°57' E 023°37'1 3.3
2017-Nov-17 23:00N 37°57' E 023°35'0 0.2
2017-Nov-17 22:30N 37°57' E 023°35'0 0.8
2017-Nov-17 22:00N 37°57' E 023°35'2 3.1
2017-Nov-17 21:30N 37°58' E 023°36'1 2.8
2017-Nov-17 21:00N 37°56' E 023°36'1 2.6
2017-Nov-17 20:30N 37°57' E 023°36'0 0.3
2017-Nov-17 19:45N 37°57' E 023°37'0 0.0
2017-Nov-17 19:25N 37°57' E 023°37'0 0.0
2017-Nov-17 18:43N 37°57' E 023°37'0 0.0
2017-Nov-17 18:28N 37°57' E 023°37'0 0.0
2017-Nov-17 17:46N 37°57' E 023°37'0 0.0
2017-Nov-17 17:29N 37°57' E 023°37'0 0.0
2017-Nov-17 17:00N 37°57' E 023°37'0 0.2
2017-Nov-17 16:30N 37°57' E 023°37'1 2.1
2017-Nov-17 16:00N 37°57' E 023°35'0 0.7
2017-Nov-17 15:30N 37°57' E 023°35'1 2.2
2017-Nov-17 14:59N 37°57' E 023°37'0 0.0
2017-Nov-17 14:28N 37°57' E 023°37'0 0.0
2017-Nov-17 14:00N 37°57' E 023°37'0 0.2
2017-Nov-17 13:29N 37°57' E 023°36'1 2.0
2017-Nov-17 13:00N 37°57' E 023°35'1 1.9
2017-Nov-17 12:26N 37°57' E 023°37'0 0.0
2017-Nov-17 12:00N 37°57' E 023°37'0 0.0
2017-Nov-17 08:09N 37°57' E 023°37'0 0.0
2017-Nov-17 08:00N 37°57' E 023°37'1 1.7
2017-Nov-17 07:30N 37°57' E 023°36'0 0.5
2017-Nov-17 07:00N 37°57' E 023°35'1 2.0
2017-Nov-17 06:31N 37°57' E 023°36'0 0.3
2017-Nov-17 06:00N 37°57' E 023°37'0 0.0
2017-Nov-17 05:30N 37°57' E 023°37'0 0.0
2017-Nov-17 05:01N 37°57' E 023°37'0 0.0
2017-Nov-17 04:30N 37°57' E 023°37'0 0.0
2017-Nov-17 04:00N 37°57' E 023°37'0 0.0
2017-Nov-17 03:30N 37°57' E 023°37'0 0.0
2017-Nov-17 03:00N 37°57' E 023°37'0 0.0
2017-Nov-17 02:31N 37°57' E 023°37'0 0.0
2017-Nov-17 02:00N 37°57' E 023°37'0 0.0
2017-Nov-17 01:30N 37°57' E 023°37'0 0.0
2017-Nov-17 01:01N 37°57' E 023°37'0 0.0
2017-Nov-17 00:30N 37°57' E 023°37'0 0.0
2017-Nov-17 00:00N 37°57' E 023°37'0 0.0
2017-Nov-16 23:30N 37°57' E 023°37'0 0.0
2017-Nov-16 23:00N 37°57' E 023°37'0 0.0
2017-Nov-16 22:31N 37°57' E 023°37'0 0.0
2017-Nov-16 22:00N 37°57' E 023°37'0 0.0
2017-Nov-16 21:30N 37°57' E 023°37'0 0.0
2017-Nov-16 21:00N 37°57' E 023°37'1 1.6
2017-Nov-16 20:30N 37°57' E 023°36'0 0.9
2017-Nov-16 20:01N 37°57' E 023°35'0 0.0
2017-Nov-16 19:30N 37°57' E 023°35'0 0.0
2017-Nov-16 19:00N 37°57' E 023°35'0 0.0
2017-Nov-16 18:30N 37°57' E 023°35'0 0.0
2017-Nov-16 18:01N 37°57' E 023°35'0 0.4
2017-Nov-16 17:31N 37°57' E 023°35'0 0.8
2017-Nov-16 17:00N 37°57' E 023°35'1 2.4
2017-Nov-16 16:30N 37°57' E 023°37'1 2.2
2017-Nov-16 16:01N 37°56' E 023°37'1 1.8
2017-Nov-16 15:30N 37°56' E 023°38'2 4.9
2017-Nov-16 15:01N 37°57' E 023°35'1 2.6
2017-Nov-16 14:30N 37°56' E 023°35'2 4.1
2017-Nov-16 14:01N 37°57' E 023°37'1 1.4
2017-Nov-16 13:31N 37°57' E 023°36'1 1.5
2017-Nov-16 13:01N 37°57' E 023°35'0 0.9
2017-Nov-16 12:30N 37°57' E 023°35'1 2.7
2017-Nov-16 12:01N 37°57' E 023°37'0 0.0
2017-Nov-16 07:40N 37°57' E 023°37'0 0.0
2017-Nov-16 07:31N 37°57' E 023°37'1 2.5
2017-Nov-16 07:00N 37°57' E 023°35'0 0.2
2017-Nov-16 06:31N 37°57' E 023°35'0 0.3
2017-Nov-16 06:00N 37°57' E 023°35'0 0.3
2017-Nov-16 05:31N 37°57' E 023°35'0 0.0
2017-Nov-16 05:01N 37°57' E 023°35'0 0.0
2017-Nov-16 04:31N 37°57' E 023°35'0 0.0
2017-Nov-16 04:01N 37°57' E 023°35'0 0.0
2017-Nov-16 03:31N 37°57' E 023°35'0 0.0
2017-Nov-16 03:01N 37°57' E 023°35'0 0.0
2017-Nov-16 02:31N 37°57' E 023°35'0 0.0
2017-Nov-16 02:01N 37°57' E 023°35'0 0.0
2017-Nov-16 01:31N 37°57' E 023°35'0 0.0
2017-Nov-16 01:01N 37°57' E 023°35'0 0.0
2017-Nov-16 00:30N 37°57' E 023°35'0 0.0
2017-Nov-16 00:01N 37°57' E 023°35'0 0.0
2017-Nov-15 23:31N 37°57' E 023°35'3 5.6
2017-Nov-15 23:01N 37°60' E 023°33'0 0.6
2017-Nov-15 22:31N 37°60' E 023°34'2 4.2
2017-Nov-15 22:00N 37°58' E 023°33'2 4.6
2017-Nov-15 21:31N 37°57' E 023°36'0 0.9
2017-Nov-15 21:01N 37°57' E 023°36'1 1.6
2017-Nov-15 20:30N 37°57' E 023°37'0 0.0
2017-Nov-15 20:00N 37°57' E 023°37'0 0.0
2017-Nov-15 19:31N 37°57' E 023°37'2 4.2
2017-Nov-15 19:01N 37°57' E 023°34'4 7.3
2017-Nov-15 18:30N 38°01' E 023°35'1 1.4
2017-Nov-15 18:00N 38°01' E 023°35'2 2.0
2017-Nov-15 17:07N 38°00' E 023°33'0 0.6
2017-Nov-15 17:01N 38°00' E 023°33'3 5.9
2017-Nov-15 16:31N 37°57' E 023°34'2 4.1
2017-Nov-15 16:01N 37°57' E 023°37'0 0.0
2017-Nov-15 15:30N 37°57' E 023°37'0 0.0
2017-Nov-15 14:53N 37°57' E 023°37'0 0.0
2017-Nov-15 14:31N 37°57' E 023°37'0 0.0
2017-Nov-15 14:00N 37°57' E 023°37'0 0.0
2017-Nov-15 13:30N 37°57' E 023°37'0 0.0
2017-Nov-15 13:01N 37°57' E 023°37'0 0.0
2017-Nov-15 12:30N 37°57' E 023°37'0 0.2
2017-Nov-15 12:00N 37°57' E 023°37'0 0.0
2017-Nov-15 11:31N 37°57' E 023°37'0 0.0
2017-Nov-15 10:12N 37°57' E 023°37'0 0.0
2017-Nov-15 08:13N 37°57' E 023°37'0 0.0
2017-Nov-15 08:00N 37°57' E 023°37'1 1.0
2017-Nov-15 07:30N 37°57' E 023°36'2 3.9
2017-Nov-15 07:00N 37°56' E 023°35'1 2.2
2017-Nov-15 06:30N 37°57' E 023°35'1 2.6
2017-Nov-15 06:00N 37°57' E 023°37'0 0.0
2017-Nov-15 05:30N 37°57' E 023°37'0 0.0
2017-Nov-15 05:00N 37°57' E 023°37'0 0.0
2017-Nov-15 04:30N 37°57' E 023°37'0 0.0
2017-Nov-15 04:00N 37°57' E 023°37'0 0.0
2017-Nov-15 03:30N 37°57' E 023°37'0 0.7
2017-Nov-15 03:00N 37°57' E 023°36'3 5.9
2017-Nov-15 02:30N 37°58' E 023°33'4 7.7
2017-Nov-15 02:00N 38°01' E 023°29'4 7.3
2017-Nov-15 01:30N 37°58' E 023°26'2 4.3
2017-Nov-15 01:00N 37°58' E 023°23'0 0.0
2017-Nov-15 00:30N 37°58' E 023°23'0 0.4
2017-Nov-15 00:00N 37°58' E 023°23'1 1.1
2017-Nov-14 23:30N 37°58' E 023°23'1 1.4
2017-Nov-14 23:00N 37°58' E 023°23'2 3.1
2017-Nov-14 22:30N 37°58' E 023°25'3 6.9
2017-Nov-14 22:00N 38°00' E 023°28'4 8.5
2017-Nov-14 21:30N 37°59' E 023°33'3 5.7
2017-Nov-14 21:00N 37°57' E 023°36'0 0.4
2017-Nov-14 20:30N 37°57' E 023°36'1 1.5
2017-Nov-14 20:00N 37°57' E 023°35'1 2.2
2017-Nov-14 19:30N 37°57' E 023°36'1 1.4
2017-Nov-14 19:00N 37°57' E 023°36'2 3.8
2017-Nov-14 18:30N 37°57' E 023°34'4 8.3
2017-Nov-14 18:00N 38°01' E 023°32'1 2.6
2017-Nov-14 17:30N 38°02' E 023°30'1 2.9
2017-Nov-14 17:00N 38°01' E 023°32'0 0.2
2017-Nov-14 16:30N 38°01' E 023°32'4 7.4
2017-Nov-14 16:00N 37°58' E 023°34'2 3.8
2017-Nov-14 15:30N 37°57' E 023°36'0 0.0
2017-Nov-14 15:00N 37°57' E 023°36'1 2.6
2017-Nov-14 14:30N 37°57' E 023°35'1 2.6
2017-Nov-14 14:00N 37°57' E 023°36'0 0.5
2017-Nov-14 13:30N 37°58' E 023°36'0 0.9
2017-Nov-14 13:00N 37°57' E 023°36'0 0.5
2017-Nov-14 12:30N 37°58' E 023°36'0 0.0
2017-Nov-14 06:35N 37°57' E 023°36'0 0.2
2017-Nov-14 06:31N 37°57' E 023°36'1 1.4
2017-Nov-14 06:00N 37°57' E 023°36'1 1.3
2017-Nov-14 05:31N 37°56' E 023°36'1 2.2
2017-Nov-14 05:00N 37°57' E 023°35'0 0.1
2017-Nov-14 04:31N 37°57' E 023°35'0 0.0
2017-Nov-14 04:01N 37°57' E 023°35'0 0.0
2017-Nov-14 03:30N 37°57' E 023°35'0 0.0
2017-Nov-14 03:00N 37°57' E 023°35'0 0.0
2017-Nov-14 02:31N 37°57' E 023°35'0 0.0
2017-Nov-14 02:00N 37°57' E 023°35'0 0.0
2017-Nov-14 01:31N 37°57' E 023°35'0 0.1
2017-Nov-14 01:01N 37°57' E 023°35'0 0.2
2017-Nov-14 00:30N 37°57' E 023°35'1 1.6
2017-Nov-14 00:01N 37°57' E 023°36'0 0.0
2017-Nov-13 23:30N 37°57' E 023°36'0 0.0
2017-Nov-13 23:01N 37°57' E 023°36'0 0.0
2017-Nov-13 22:30N 37°57' E 023°36'1 2.2
2017-Nov-13 22:01N 37°57' E 023°35'  
Track history (hours):
 
Tides and Currents Weather Stations Pressure Air Temp Water Temp Dewpoint Dewpoint Depression Visibility Wind Speed Wind Dir Waves Ship Positions

Ifestos 2

Last reported at 2017-Nov-23 05:30 UTC. Time now 2017-Nov-23 05:40 UTC.
Position N 37°57' E 023°35'.

Length 30 m; draft 3.3 m.

Type: Tug. MMSI: 237070600.

Date/timePositionNaut miles runAvg speedWind from/ knotsBaromVisibWave heightAir tempDewpointWater temp
2017-Nov-23 05:30N 37°57' E 023°35'1 1.1
2017-Nov-23 05:00N 37°57' E 023°35'2 4.8
2017-Nov-23 04:30N 37°58' E 023°33'4 8.3
2017-Nov-23 04:00N 38°02' E 023°31'2 3.8
2017-Nov-23 03:30N 38°00' E 023°32'3 6.2
2017-Nov-23 03:00N 37°58' E 023°34'0 0.0
2017-Nov-23 02:30N 37°58' E 023°34'0 0.0
2017-Nov-23 02:00N 37°58' E 023°34'0 0.0
2017-Nov-23 01:30N 37°58' E 023°34'0 0.0
2017-Nov-23 01:00N 37°58' E 023°34'0 0.0
2017-Nov-23 00:31N 37°58' E 023°34'1 2.3
2017-Nov-23 00:00N 37°57' E 023°35'1 2.6
2017-Nov-22 23:30N 37°57' E 023°37'0 0.0
2017-Nov-22 23:00N 37°57' E 023°37'0 0.0
2017-Nov-22 22:30N 37°57' E 023°37'0 0.0
2017-Nov-22 22:00N 37°57' E 023°37'0 0.0
2017-Nov-22 21:30N 37°57' E 023°37'0 0.0
2017-Nov-22 21:00N 37°57' E 023°37'1 1.4
2017-Nov-22 20:30N 37°57' E 023°36'0 0.2
2017-Nov-22 20:00N 37°57' E 023°36'0 0.0
2017-Nov-22 19:30N 37°57' E 023°36'  
2017-Nov-20 00:30N 37°57' E 023°37'1 1.5
2017-Nov-20 00:00N 37°57' E 023°36'1 1.5
2017-Nov-19 23:30N 37°57' E 023°37'0 0.0
2017-Nov-19 23:00N 37°57' E 023°37'0 0.0
2017-Nov-19 22:30N 37°57' E 023°37'0 0.0
2017-Nov-19 22:00N 37°57' E 023°37'1 1.4
2017-Nov-19 21:30N 37°57' E 023°36'1 1.5
2017-Nov-19 21:00N 37°57' E 023°35'1 1.4
2017-Nov-19 20:30N 37°57' E 023°36'1 1.7
2017-Nov-19 20:00N 37°56' E 023°36'1 2.1
2017-Nov-19 19:30N 37°57' E 023°37'0 0.0
2017-Nov-19 19:00N 37°57' E 023°37'1 2.8
2017-Nov-19 18:30N 37°57' E 023°35'0 0.9
2017-Nov-19 18:00N 37°57' E 023°35'1 1.4
2017-Nov-19 17:30N 37°57' E 023°36'1 1.2
2017-Nov-19 17:00N 37°57' E 023°36'0 0.3
2017-Nov-19 16:30N 37°57' E 023°37'0 0.0
2017-Nov-19 16:00N 37°57' E 023°37'0 0.0
2017-Nov-19 15:30N 37°57' E 023°37'0 0.8
2017-Nov-19 15:00N 37°57' E 023°36'1 2.1
2017-Nov-19 14:30N 37°56' E 023°36'1 1.7
2017-Nov-19 13:43N 37°57' E 023°37'0 0.0
2017-Nov-19 13:30N 37°57' E 023°37'0 0.0
2017-Nov-19 13:00N 37°57' E 023°37'0 0.4
2017-Nov-19 12:30N 37°58' E 023°36'0 0.4
2017-Nov-19 12:00N 37°57' E 023°37'0 0.0
2017-Nov-19 11:30N 37°57' E 023°37'0 0.7
2017-Nov-19 11:00N 37°58' E 023°36'0 0.4
2017-Nov-19 10:30N 37°58' E 023°36'1 2.0
2017-Nov-19 10:00N 37°57' E 023°35'1 2.2
2017-Nov-19 09:30N 37°57' E 023°37'0 0.0
2017-Nov-19 08:45N 37°57' E 023°37'0 0.0
2017-Nov-19 08:30N 37°57' E 023°37'0 0.0
2017-Nov-19 07:56N 37°57' E 023°37'0 0.0
2017-Nov-19 07:14N 37°57' E 023°37'0 0.0
2017-Nov-19 06:59N 37°57' E 023°37'0 0.0
2017-Nov-19 06:29N 37°57' E 023°37'0 0.0
2017-Nov-19 05:58N 37°57' E 023°37'1 2.4
2017-Nov-19 05:30N 37°57' E 023°35'0 0.4
2017-Nov-19 05:00N 37°57' E 023°35'1 2.0
2017-Nov-19 04:24N 37°57' E 023°37'0 0.0
2017-Nov-19 04:00N 37°57' E 023°37'0 0.0
2017-Nov-19 03:28N 37°57' E 023°37'1 2.3
2017-Nov-19 03:00N 37°57' E 023°35'1 2.1
2017-Nov-19 02:29N 37°57' E 023°37'0 0.0
2017-Nov-19 01:59N 37°57' E 023°37'0 0.0
2017-Nov-19 01:29N 37°57' E 023°37'0 0.0
2017-Nov-19 00:44N 37°57' E 023°37'0 0.0
2017-Nov-19 00:21N 37°57' E 023°37'0 0.0
2017-Nov-18 22:11N 37°58' E 023°37'1 3.7
2017-Nov-18 22:00N 37°57' E 023°36'1 1.8
2017-Nov-18 21:30N 37°57' E 023°36'1 1.8
2017-Nov-18 21:00N 37°57' E 023°36'1 1.1
2017-Nov-18 20:30N 37°57' E 023°35'1 1.3
2017-Nov-18 20:00N 37°57' E 023°36'1 0.2
2017-Nov-18 16:34N 37°57' E 023°37'1 8.8
2017-Nov-18 16:30N 37°57' E 023°36'0 1.0
2017-Nov-18 16:00N 37°57' E 023°35'1 1.5
2017-Nov-18 15:18N 37°57' E 023°37'0 0.0
2017-Nov-18 14:58N 37°57' E 023°37'0 0.0
2017-Nov-18 13:54N 37°57' E 023°37'0 0.0
2017-Nov-18 13:27N 37°57' E 023°37'1 1.6
2017-Nov-18 13:00N 37°57' E 023°36'0 0.3
2017-Nov-18 12:30N 37°57' E 023°36'0 0.8
2017-Nov-18 12:00N 37°57' E 023°36'1 1.3
2017-Nov-18 11:28N 37°57' E 023°37'0 0.0
2017-Nov-18 10:59N 37°57' E 023°37'0 0.0
2017-Nov-18 10:28N 37°57' E 023°37'0 0.0
2017-Nov-18 09:57N 37°57' E 023°37'1 2.7
2017-Nov-18 09:30N 37°56' E 023°38'2 4.8
2017-Nov-18 09:00N 37°57' E 023°35'1 1.8
2017-Nov-18 08:30N 37°56' E 023°35'1 2.0
2017-Nov-18 08:00N 37°57' E 023°36'2 3.4
2017-Nov-18 07:30N 37°56' E 023°38'1 2.3
2017-Nov-18 06:59N 37°57' E 023°37'0 0.0
2017-Nov-18 06:30N 37°57' E 023°37'1 1.3
2017-Nov-18 06:00N 37°57' E 023°37'1 1.8
2017-Nov-18 05:30N 37°57' E 023°36'1 1.8
2017-Nov-18 05:00N 37°57' E 023°35'1 2.4
2017-Nov-18 04:30N 37°57' E 023°36'0 0.3
2017-Nov-18 03:26N 37°57' E 023°37'1 2.7
2017-Nov-18 03:00N 37°57' E 023°35'0 0.0
2017-Nov-18 02:29N 37°57' E 023°35'0 0.0
2017-Nov-18 02:00N 37°57' E 023°35'0 0.2
2017-Nov-18 01:30N 37°57' E 023°35'0 0.7
2017-Nov-18 01:00N 37°57' E 023°35'3 6.1
2017-Nov-18 00:30N 37°60' E 023°33'0 0.7
2017-Nov-18 00:00N 37°59' E 023°33'4 6.5
2017-Nov-17 23:27N 37°57' E 023°37'1 3.3
2017-Nov-17 23:00N 37°57' E 023°35'0 0.2
2017-Nov-17 22:30N 37°57' E 023°35'0 0.8
2017-Nov-17 22:00N 37°57' E 023°35'2 3.1
2017-Nov-17 21:30N 37°58' E 023°36'1 2.8
2017-Nov-17 21:00N 37°56' E 023°36'1 2.6
2017-Nov-17 20:30N 37°57' E 023°36'0 0.3
2017-Nov-17 19:45N 37°57' E 023°37'0 0.0
2017-Nov-17 19:25N 37°57' E 023°37'0 0.0
2017-Nov-17 18:43N 37°57' E 023°37'0 0.0
2017-Nov-17 18:28N 37°57' E 023°37'0 0.0
2017-Nov-17 17:46N 37°57' E 023°37'0 0.0
2017-Nov-17 17:29N 37°57' E 023°37'0 0.0
2017-Nov-17 17:00N 37°57' E 023°37'0 0.2
2017-Nov-17 16:30N 37°57' E 023°37'1 2.1
2017-Nov-17 16:00N 37°57' E 023°35'0 0.7
2017-Nov-17 15:30N 37°57' E 023°35'1 2.2
2017-Nov-17 14:59N 37°57' E 023°37'0 0.0
2017-Nov-17 14:28N 37°57' E 023°37'0 0.0
2017-Nov-17 14:00N 37°57' E 023°37'0 0.2
2017-Nov-17 13:29N 37°57' E 023°36'1 2.0
2017-Nov-17 13:00N 37°57' E 023°35'1 1.9
2017-Nov-17 12:26N 37°57' E 023°37'0 0.0
2017-Nov-17 12:00N 37°57' E 023°37'0 0.0
2017-Nov-17 08:09N 37°57' E 023°37'0 0.0
2017-Nov-17 08:00N 37°57' E 023°37'1 1.7
2017-Nov-17 07:30N 37°57' E 023°36'0 0.5
2017-Nov-17 07:00N 37°57' E 023°35'1 2.0
2017-Nov-17 06:31N 37°57' E 023°36'0 0.3
2017-Nov-17 06:00N 37°57' E 023°37'0 0.0
2017-Nov-17 05:30N 37°57' E 023°37'0 0.0
2017-Nov-17 05:01N 37°57' E 023°37'0 0.0
2017-Nov-17 04:30N 37°57' E 023°37'0 0.0
2017-Nov-17 04:00N 37°57' E 023°37'0 0.0
2017-Nov-17 03:30N 37°57' E 023°37'0 0.0
2017-Nov-17 03:00N 37°57' E 023°37'0 0.0
2017-Nov-17 02:31N 37°57' E 023°37'0 0.0
2017-Nov-17 02:00N 37°57' E 023°37'0 0.0
2017-Nov-17 01:30N 37°57' E 023°37'0 0.0
2017-Nov-17 01:01N 37°57' E 023°37'0 0.0
2017-Nov-17 00:30N 37°57' E 023°37'0 0.0
2017-Nov-17 00:00N 37°57' E 023°37'0 0.0
2017-Nov-16 23:30N 37°57' E 023°37'0 0.0
2017-Nov-16 23:00N 37°57' E 023°37'0 0.0
2017-Nov-16 22:31N 37°57' E 023°37'0 0.0
2017-Nov-16 22:00N 37°57' E 023°37'0 0.0
2017-Nov-16 21:30N 37°57' E 023°37'0 0.0
2017-Nov-16 21:00N 37°57' E 023°37'1 1.6
2017-Nov-16 20:30N 37°57' E 023°36'0 0.9
2017-Nov-16 20:01N 37°57' E 023°35'0 0.0
2017-Nov-16 19:30N 37°57' E 023°35'0 0.0
2017-Nov-16 19:00N 37°57' E 023°35'0 0.0
2017-Nov-16 18:30N 37°57' E 023°35'0 0.0
2017-Nov-16 18:01N 37°57' E 023°35'0 0.4
2017-Nov-16 17:31N 37°57' E 023°35'0 0.8
2017-Nov-16 17:00N 37°57' E 023°35'1 2.4
2017-Nov-16 16:30N 37°57' E 023°37'1 2.2
2017-Nov-16 16:01N 37°56' E 023°37'1 1.8
2017-Nov-16 15:30N 37°56' E 023°38'2 4.9
2017-Nov-16 15:01N 37°57' E 023°35'1 2.6
2017-Nov-16 14:30N 37°56' E 023°35'2 4.1
2017-Nov-16 14:01N 37°57' E 023°37'1 1.4
2017-Nov-16 13:31N 37°57' E 023°36'1 1.5
2017-Nov-16 13:01N 37°57' E 023°35'0 0.9
2017-Nov-16 12:30N 37°57' E 023°35'1 2.7
2017-Nov-16 12:01N 37°57' E 023°37'0 0.0
2017-Nov-16 07:40N 37°57' E 023°37'0 0.0
2017-Nov-16 07:31N 37°57' E 023°37'1 2.5
2017-Nov-16 07:00N 37°57' E 023°35'0 0.2
2017-Nov-16 06:31N 37°57' E 023°35'0 0.3
2017-Nov-16 06:00N 37°57' E 023°35'0 0.3
2017-Nov-16 05:31N 37°57' E 023°35'0 0.0
2017-Nov-16 05:01N 37°57' E 023°35'0 0.0
2017-Nov-16 04:31N 37°57' E 023°35'0 0.0
2017-Nov-16 04:01N 37°57' E 023°35'0 0.0
2017-Nov-16 03:31N 37°57' E 023°35'0 0.0
2017-Nov-16 03:01N 37°57' E 023°35'0 0.0
2017-Nov-16 02:31N 37°57' E 023°35'0 0.0
2017-Nov-16 02:01N 37°57' E 023°35'0 0.0
2017-Nov-16 01:31N 37°57' E 023°35'0 0.0
2017-Nov-16 01:01N 37°57' E 023°35'0 0.0
2017-Nov-16 00:30N 37°57' E 023°35'0 0.0
2017-Nov-16 00:01N 37°57' E 023°35'0 0.0
2017-Nov-15 23:31N 37°57' E 023°35'3 5.6
2017-Nov-15 23:01N 37°60' E 023°33'0 0.6
2017-Nov-15 22:31N 37°60' E 023°34'2 4.2
2017-Nov-15 22:00N 37°58' E 023°33'2 4.6
2017-Nov-15 21:31N 37°57' E 023°36'0 0.9
2017-Nov-15 21:01N 37°57' E 023°36'1 1.6
2017-Nov-15 20:30N 37°57' E 023°37'0 0.0
2017-Nov-15 20:00N 37°57' E 023°37'0 0.0
2017-Nov-15 19:31N 37°57' E 023°37'2 4.2
2017-Nov-15 19:01N 37°57' E 023°34'4 7.3
2017-Nov-15 18:30N 38°01' E 023°35'1 1.4
2017-Nov-15 18:00N 38°01' E 023°35'2 2.0
2017-Nov-15 17:07N 38°00' E 023°33'0 0.6
2017-Nov-15 17:01N 38°00' E 023°33'3 5.9
2017-Nov-15 16:31N 37°57' E 023°34'2 4.1
2017-Nov-15 16:01N 37°57' E 023°37'0 0.0
2017-Nov-15 15:30N 37°57' E 023°37'0 0.0
2017-Nov-15 14:53N 37°57' E 023°37'0 0.0
2017-Nov-15 14:31N 37°57' E 023°37'0 0.0
2017-Nov-15 14:00N 37°57' E 023°37'0 0.0
2017-Nov-15 13:30N 37°57' E 023°37'0 0.0
2017-Nov-15 13:01N 37°57' E 023°37'0 0.0
2017-Nov-15 12:30N 37°57' E 023°37'0 0.2
2017-Nov-15 12:00N 37°57' E 023°37'0 0.0
2017-Nov-15 11:31N 37°57' E 023°37'0 0.0
2017-Nov-15 10:12N 37°57' E 023°37'0 0.0
2017-Nov-15 08:13N 37°57' E 023°37'0 0.0
2017-Nov-15 08:00N 37°57' E 023°37'1 1.0
2017-Nov-15 07:30N 37°57' E 023°36'2 3.9
2017-Nov-15 07:00N 37°56' E 023°35'1 2.2
2017-Nov-15 06:30N 37°57' E 023°35'1 2.6
2017-Nov-15 06:00N 37°57' E 023°37'0 0.0
2017-Nov-15 05:30N 37°57' E 023°37'0 0.0
2017-Nov-15 05:00N 37°57' E 023°37'0 0.0
2017-Nov-15 04:30N 37°57' E 023°37'0 0.0
2017-Nov-15 04:00N 37°57' E 023°37'0 0.0
2017-Nov-15 03:30N 37°57' E 023°37'0 0.7
2017-Nov-15 03:00N 37°57' E 023°36'3 5.9
2017-Nov-15 02:30N 37°58' E 023°33'4 7.7
2017-Nov-15 02:00N 38°01' E 023°29'4 7.3
2017-Nov-15 01:30N 37°58' E 023°26'2 4.3
2017-Nov-15 01:00N 37°58' E 023°23'0 0.0
2017-Nov-15 00:30N 37°58' E 023°23'0 0.4
2017-Nov-15 00:00N 37°58' E 023°23'1 1.1
2017-Nov-14 23:30N 37°58' E 023°23'1 1.4
2017-Nov-14 23:00N 37°58' E 023°23'2 3.1
2017-Nov-14 22:30N 37°58' E 023°25'3 6.9
2017-Nov-14 22:00N 38°00' E 023°28'4 8.5
2017-Nov-14 21:30N 37°59' E 023°33'3 5.7
2017-Nov-14 21:00N 37°57' E 023°36'0 0.4
2017-Nov-14 20:30N 37°57' E 023°36'1 1.5
2017-Nov-14 20:00N 37°57' E 023°35'1 2.2
2017-Nov-14 19:30N 37°57' E 023°36'1 1.4
2017-Nov-14 19:00N 37°57' E 023°36'2 3.8
2017-Nov-14 18:30N 37°57' E 023°34'4 8.3
2017-Nov-14 18:00N 38°01' E 023°32'1 2.6
2017-Nov-14 17:30N 38°02' E 023°30'1 2.9
2017-Nov-14 17:00N 38°01' E 023°32'0 0.2
2017-Nov-14 16:30N 38°01' E 023°32'4 7.4
2017-Nov-14 16:00N 37°58' E 023°34'2 3.8
2017-Nov-14 15:30N 37°57' E 023°36'0 0.0
2017-Nov-14 15:00N 37°57' E 023°36'1 2.6
2017-Nov-14 14:30N 37°57' E 023°35'1 2.6
2017-Nov-14 14:00N 37°57' E 023°36'0 0.5
2017-Nov-14 13:30N 37°58' E 023°36'0 0.9
2017-Nov-14 13:00N 37°57' E 023°36'0 0.5
2017-Nov-14 12:30N 37°58' E 023°36'0 0.0
2017-Nov-14 06:35N 37°57' E 023°36'0 0.2
2017-Nov-14 06:31N 37°57' E 023°36'1 1.4
2017-Nov-14 06:00N 37°57' E 023°36'1 1.3
2017-Nov-14 05:31N 37°56' E 023°36'1 2.2
2017-Nov-14 05:00N 37°57' E 023°35'0 0.1
2017-Nov-14 04:31N 37°57' E 023°35'0 0.0
2017-Nov-14 04:01N 37°57' E 023°35'0 0.0
2017-Nov-14 03:30N 37°57' E 023°35'0 0.0
2017-Nov-14 03:00N 37°57' E 023°35'0 0.0
2017-Nov-14 02:31N 37°57' E 023°35'0 0.0
2017-Nov-14 02:00N 37°57' E 023°35'0 0.0
2017-Nov-14 01:31N 37°57' E 023°35'0 0.1
2017-Nov-14 01:01N 37°57' E 023°35'0 0.2
2017-Nov-14 00:30N 37°57' E 023°35'1 1.6
2017-Nov-14 00:01N 37°57' E 023°36'0 0.0
2017-Nov-13 23:30N 37°57' E 023°36'0 0.0
2017-Nov-13 23:01N 37°57' E 023°36'0 0.0
2017-Nov-13 22:30N 37°57' E 023°36'1 2.2
2017-Nov-13 22:01N 37°57' E 023°35'  

Dump ship's entire track history